Time;durP1;ratioP1;P1;durP2;ratioP2;P2;SDS_P1;SDS_P2;PMS_P1;PMS_P2;Temp;Humidity;BMP_temperature;BMP_pressure;BME280_temperature;BME280_humidity;BME280_pressure;Samples;Min_cycle;Max_cycle;Signal;HPM_P1;HPM_P2
2023/10/19 00:00:44;;;;;;;12.40;11.30;;;13.90;36.50;;;;;;10380856;28;20590;-72
2023/10/19 00:05:48;;;;;;;12.40;11.30;;;13.90;36.80;;;;;;10384513;28;20309;-72
2023/10/19 00:11:02;;;;;;;11.83;10.83;;;13.90;36.70;;;;;;10392796;28;20608;-73
2023/10/19 00:16:12;;;;;;;12.60;11.50;;;13.90;36.90;;;;;;10386845;28;20249;-73
2023/10/19 00:21:20;;;;;;;12.53;11.33;;;13.90;36.90;;;;;;10384174;28;20247;-72
2023/10/19 00:26:25;;;;;;;12.60;11.50;;;13.90;36.80;;;;;;10393223;28;20232;-73
2023/10/19 00:31:33;;;;;;;11.43;10.43;;;13.90;36.90;;;;;;10387531;28;20312;-72
2023/10/19 00:36:39;;;;;;;13.50;12.20;;;13.90;37.10;;;;;;10384211;28;20325;-73
2023/10/19 00:41:43;;;;;;;13.57;12.27;;;13.80;37.00;;;;;;10383911;28;20229;-72
2023/10/19 00:46:50;;;;;;;13.67;12.37;;;13.80;37.10;;;;;;10382784;28;20316;-72
2023/10/19 00:52:03;;;;;;;13.27;12.10;;;13.80;37.20;;;;;;10378784;28;20229;-72
2023/10/19 00:57:08;;;;;;;12.00;11.00;;;13.80;37.40;;;;;;10378600;28;20321;-72
2023/10/19 01:02:20;;;;;;;13.80;12.60;;;13.80;37.20;;;;;;10387840;28;20237;-72
2023/10/19 01:07:27;;;;;;;11.87;10.77;;;13.80;37.20;;;;;;10380508;28;20233;-72
2023/10/19 01:12:38;;;;;;;11.77;10.87;;;13.70;37.20;;;;;;10389518;28;20230;-72
2023/10/19 01:17:45;;;;;;;13.03;11.93;;;13.70;37.20;;;;;;10389036;28;20217;-72
2023/10/19 01:23:06;;;;;;;14.30;13.00;;;13.60;37.60;;;;;;10390943;28;20288;-72
2023/10/19 01:28:16;;;;;;;12.70;11.70;;;13.60;37.90;;;;;;10386744;28;20260;-73
2023/10/19 01:33:19;;;;;;;13.53;12.43;;;13.70;37.40;;;;;;10389649;28;20233;-72
2023/10/19 01:38:25;;;;;;;13.43;12.23;;;13.70;37.30;;;;;;10385079;28;20240;-72
2023/10/19 01:43:30;;;;;;;13.07;11.97;;;13.60;37.60;;;;;;10374718;28;20225;-72
2023/10/19 01:48:35;;;;;;;14.23;13.07;;;13.60;37.40;;;;;;10389035;28;20229;-72
2023/10/19 01:53:41;;;;;;;14.20;12.80;;;13.60;37.20;;;;;;10382540;28;20257;-72
2023/10/19 01:58:47;;;;;;;13.63;12.43;;;13.50;37.50;;;;;;10384741;28;20230;-72
2023/10/19 02:03:57;;;;;;;13.47;12.27;;;13.40;37.80;;;;;;10386764;28;20230;-72
2023/10/19 02:09:09;;;;;;;14.23;13.00;;;13.30;37.80;;;;;;10382916;28;20234;-72
2023/10/19 02:14:14;;;;;;;14.53;13.23;;;13.30;38.30;;;;;;10387079;28;21130;-72
2023/10/19 02:19:19;;;;;;;11.77;10.77;;;13.30;38.00;;;;;;10388513;28;20764;-72
2023/10/19 02:24:25;;;;;;;13.70;12.33;;;13.30;38.20;;;;;;10382551;28;20225;-72
2023/10/19 02:29:28;;;;;;;13.10;12.00;;;13.30;38.50;;;;;;10383972;28;20275;-72
2023/10/19 02:34:32;;;;;;;12.70;11.60;;;13.20;38.10;;;;;;10385285;28;20225;-72
2023/10/19 02:39:37;;;;;;;12.07;11.07;;;13.30;38.20;;;;;;10379671;28;20241;-72
2023/10/19 02:44:41;;;;;;;11.97;10.83;;;13.30;38.40;;;;;;10381028;28;20225;-72
2023/10/19 02:49:51;;;;;;;11.50;10.50;;;13.30;38.10;;;;;;10381083;28;20226;-71
2023/10/19 02:54:59;;;;;;;12.13;11.03;;;13.30;38.30;;;;;;10381771;28;20322;-72
2023/10/19 03:00:08;;;;;;;12.37;11.27;;;13.30;38.60;;;;;;10387982;28;20230;-72
2023/10/19 03:05:14;;;;;;;12.70;11.50;;;13.30;38.30;;;;;;10379447;28;20225;-72
2023/10/19 03:10:23;;;;;;;12.20;11.07;;;13.30;38.30;;;;;;10383064;28;20217;-72
2023/10/19 03:15:30;;;;;;;11.77;10.73;;;13.30;38.60;;;;;;10387155;28;20222;-72
2023/10/19 03:20:33;;;;;;;11.83;10.83;;;13.30;38.30;;;;;;10377410;28;20237;-72
2023/10/19 03:26:22;;;;;;;11.90;10.90;;;13.30;39.00;;;;;;10381344;28;20619;-71
2023/10/19 03:31:20;;;;;;;12.13;11.13;;;13.30;38.50;;;;;;10382213;28;20220;-72
2023/10/19 03:36:25;;;;;;;13.63;12.43;;;13.30;38.60;;;;;;10377872;28;20232;-72
2023/10/19 03:41:30;;;;;;;13.07;11.97;;;13.20;38.50;;;;;;10383585;28;20234;-72
2023/10/19 03:46:37;;;;;;;13.90;12.60;;;13.20;38.70;;;;;;10384427;28;20230;-72
2023/10/19 03:51:58;;;;;;;12.23;11.23;;;13.20;38.60;;;;;;10386425;28;20252;-71
2023/10/19 03:57:06;;;;;;;14.20;12.90;;;13.20;38.70;;;;;;10383533;28;20221;-71
2023/10/19 04:02:13;;;;;;;13.70;12.50;;;13.20;39.10;;;;;;10372250;28;20225;-72
2023/10/19 04:07:20;;;;;;;15.30;13.87;;;13.20;38.60;;;;;;10374050;28;20226;-72
2023/10/19 04:12:25;;;;;;;16.67;15.07;;;13.20;38.90;;;;;;10359468;28;20381;-72
2023/10/19 04:17:29;;;;;;;17.13;15.53;;;13.10;39.10;;;;;;10367814;28;20802;-71
2023/10/19 04:22:33;;;;;;;17.33;15.80;;;13.00;38.80;;;;;;10372143;28;20241;-76
2023/10/19 04:27:37;;;;;;;16.13;14.73;;;13.00;39.00;;;;;;10366537;28;20237;-72
2023/10/19 04:32:40;;;;;;;15.87;14.40;;;12.90;39.50;;;;;;10378794;28;20233;-72
2023/10/19 04:37:44;;;;;;;17.53;16.00;;;12.90;39.40;;;;;;10385931;28;20226;-72
2023/10/19 04:42:51;;;;;;;14.33;13.03;;;13.00;39.60;;;;;;10381747;28;20240;-72
2023/10/19 04:47:54;;;;;;;16.77;15.37;;;13.00;40.00;;;;;;10390328;28;20497;-74
2023/10/19 04:52:58;;;;;;;16.87;15.37;;;13.10;39.50;;;;;;10387331;28;20245;-72
2023/10/19 04:58:03;;;;;;;16.27;14.87;;;13.10;39.50;;;;;;10388852;28;20279;-73
2023/10/19 05:03:07;;;;;;;16.30;14.80;;;13.20;39.90;;;;;;10385538;28;20229;-72
2023/10/19 05:08:10;;;;;;;16.37;14.93;;;13.20;39.50;;;;;;10384315;28;20728;-72
2023/10/19 05:13:15;;;;;;;16.50;15.00;;;13.20;39.50;;;;;;10383462;28;20601;-72
2023/10/19 05:18:18;;;;;;;16.23;14.80;;;13.20;39.90;;;;;;10385684;28;20226;-73
2023/10/19 05:23:21;;;;;;;14.60;13.40;;;13.20;39.50;;;;;;10386748;28;20229;-77
2023/10/19 05:28:25;;;;;;;15.83;14.53;;;13.30;40.10;;;;;;10384505;28;20233;-76
2023/10/19 05:33:29;;;;;;;14.80;13.40;;;13.30;40.00;;;;;;10376300;28;20798;-77
2023/10/19 05:38:33;;;;;;;15.97;14.40;;;13.30;39.80;;;;;;10375317;28;20225;-76
2023/10/19 05:43:37;;;;;;;16.27;14.87;;;13.40;39.80;;;;;;10372197;28;20236;-76
2023/10/19 05:48:41;;;;;;;14.07;12.87;;;13.30;39.90;;;;;;10381599;28;20809;-77
2023/10/19 05:53:44;;;;;;;15.60;14.30;;;13.30;39.50;;;;;;10379992;28;20791;-76
2023/10/19 05:58:50;;;;;;;14.43;13.00;;;13.30;39.50;;;;;;10385576;28;20739;-75
2023/10/19 06:03:54;;;;;;;13.93;12.70;;;13.30;39.70;;;;;;10379340;28;20238;-74
2023/10/19 06:08:57;;;;;;;15.67;14.07;;;13.20;39.50;;;;;;10384317;28;20325;-74
2023/10/19 06:14:02;;;;;;;15.03;13.63;;;13.10;39.60;;;;;;10384033;28;20316;-73
2023/10/19 06:19:05;;;;;;;15.33;13.87;;;13.10;40.00;;;;;;10382886;28;20252;-76
2023/10/19 06:24:14;;;;;;;13.77;12.47;;;13.10;39.80;;;;;;10372945;28;20251;-72
2023/10/19 06:29:19;;;;;;;14.93;13.63;;;13.10;39.70;;;;;;10376516;28;20229;-74
2023/10/19 06:34:22;;;;;;;16.13;14.63;;;13.20;40.20;;;;;;10375052;28;20234;-74
2023/10/19 06:39:25;;;;;;;16.87;15.13;;;13.20;39.90;;;;;;10376871;28;20287;-74
2023/10/19 06:44:30;;;;;;;14.47;13.23;;;13.30;40.00;;;;;;10372892;28;20851;-74
2023/10/19 06:49:34;;;;;;;16.33;14.83;;;13.30;40.30;;;;;;10372487;28;20234;-74
2023/10/19 06:54:38;;;;;;;16.73;15.23;;;13.40;40.30;;;;;;10374889;28;20225;-74
2023/10/19 06:59:43;;;;;;;16.27;14.73;;;13.40;40.30;;;;;;10381095;28;20239;-74
2023/10/19 07:04:47;;;;;;;16.87;15.20;;;13.40;40.40;;;;;;10375382;28;20226;-74
2023/10/19 07:09:51;;;;;;;19.90;18.20;;;13.50;40.10;;;;;;10385285;28;20221;-72
2023/10/19 07:15:00;;;;;;;19.37;16.73;;;13.50;40.30;;;;;;10377653;28;20241;-72
2023/10/19 07:20:05;;;;;;;19.60;17.77;;;13.50;40.70;;;;;;10375107;28;20229;-72
2023/10/19 07:25:11;;;;;;;19.37;17.57;;;13.50;40.60;;;;;;10379003;28;20648;-72
2023/10/19 07:30:20;;;;;;;17.20;15.67;;;13.60;40.50;;;;;;10378911;28;20230;-72
2023/10/19 07:35:25;;;;;;;19.60;17.90;;;13.70;40.80;;;;;;10380613;28;21101;-72
2023/10/19 07:40:29;;;;;;;18.73;16.97;;;13.70;40.50;;;;;;10379705;28;20249;-72
2023/10/19 07:45:34;;;;;;;18.60;16.90;;;13.80;40.70;;;;;;10379569;28;20297;-72
2023/10/19 07:50:42;;;;;;;17.37;15.90;;;13.90;41.40;;;;;;10382150;28;20229;-72
2023/10/19 07:55:46;;;;;;;19.00;17.30;;;14.00;41.30;;;;;;10377871;28;20225;-72
2023/10/19 08:00:52;;;;;;;18.73;17.03;;;14.10;41.00;;;;;;10379516;28;20221;-72
2023/10/19 08:05:55;;;;;;;17.07;15.50;;;14.20;41.30;;;;;;10376497;28;20275;-71
2023/10/19 08:10:59;;;;;;;18.07;16.47;;;14.30;41.00;;;;;;10375649;28;20221;-71
2023/10/19 08:16:03;;;;;;;18.13;16.57;;;14.40;41.00;;;;;;10374216;28;20291;-73
2023/10/19 08:21:07;;;;;;;15.97;14.57;;;14.50;41.50;;;;;;10386735;28;20711;-71
2023/10/19 08:26:11;;;;;;;17.03;15.50;;;14.60;41.30;;;;;;10387520;28;20226;-71
2023/10/19 08:31:15;;;;;;;18.30;16.67;;;14.70;41.10;;;;;;10381132;28;20304;-72
2023/10/19 08:36:20;;;;;;;17.80;16.27;;;14.70;41.30;;;;;;10376912;28;20317;-71
2023/10/19 08:41:24;;;;;;;16.77;15.37;;;14.80;41.20;;;;;;10375923;28;20288;-71
2023/10/19 08:46:28;;;;;;;16.87;15.30;;;14.90;41.20;;;;;;10373197;28;20236;-74
2023/10/19 08:51:32;;;;;;;16.97;15.47;;;14.90;41.20;;;;;;10376332;28;20245;-73
2023/10/19 08:56:35;;;;;;;17.97;16.43;;;14.90;41.00;;;;;;10377637;28;20232;-73
2023/10/19 09:01:43;;;;;;;17.43;15.90;;;15.00;41.10;;;;;;10379027;28;20245;-73
2023/10/19 09:06:48;;;;;;;17.47;15.87;;;15.10;41.40;;;;;;10387168;28;20313;-73
2023/10/19 09:11:52;;;;;;;16.87;15.37;;;15.20;41.30;;;;;;10386111;28;20233;-73
2023/10/19 09:16:58;;;;;;;17.00;15.40;;;15.30;41.30;;;;;;10385018;28;20966;-70
2023/10/19 09:22:07;;;;;;;16.47;15.13;;;15.30;41.70;;;;;;10381429;28;20226;-71
2023/10/19 09:27:10;;;;;;;14.40;13.17;;;15.40;41.50;;;;;;10383955;28;20237;-71
2023/10/19 09:32:15;;;;;;;16.07;14.57;;;15.50;41.60;;;;;;10382157;28;20238;-70
2023/10/19 09:37:20;;;;;;;15.90;14.43;;;15.50;41.90;;;;;;10381442;28;20873;-71
2023/10/19 09:42:27;;;;;;;15.70;14.30;;;15.70;41.60;;;;;;10384730;28;20320;-71
2023/10/19 09:47:36;;;;;;;15.83;14.47;;;15.80;41.80;;;;;;10386238;28;20740;-75
2023/10/19 09:52:41;;;;;;;14.87;13.57;;;15.80;42.20;;;;;;10381745;28;20249;-75
2023/10/19 09:57:52;;;;;;;13.37;12.23;;;15.90;42.00;;;;;;10381094;28;20279;-75
2023/10/19 10:02:57;;;;;;;14.20;12.83;;;16.00;42.50;;;;;;10378218;28;20226;-76
2023/10/19 10:08:37;;;;;;;15.00;13.60;;;16.00;42.30;;;;;;10380591;28;20364;-77
2023/10/19 10:13:42;;;;;;;13.43;12.27;;;16.10;42.90;;;;;;10382445;28;20287;-77
2023/10/19 10:18:51;;;;;;;13.60;12.40;;;16.20;42.30;;;;;;10370650;28;20229;-76
2023/10/19 10:23:56;;;;;;;15.93;14.60;;;16.20;42.30;;;;;;10382419;28;20229;-77
2023/10/19 10:29:14;;;;;;;14.77;13.47;;;16.30;42.40;;;;;;10375026;28;20607;-77
2023/10/19 10:34:46;;;;;;;13.30;12.17;;;16.40;43.00;;;;;;10379210;28;20301;-77
2023/10/19 10:39:49;;;;;;;14.97;13.60;;;16.40;42.90;;;;;;10376388;28;20253;-78
2023/10/19 10:44:55;;;;;;;14.87;13.60;;;16.50;42.20;;;;;;10380624;28;20237;-83
2023/10/19 10:50:01;;;;;;;13.43;12.37;;;16.50;42.30;;;;;;10371204;28;20315;-77
2023/10/19 10:55:10;;;;;;;14.17;12.97;;;16.50;42.80;;;;;;10379166;28;20218;-77
2023/10/19 11:00:16;;;;;;;13.33;12.23;;;16.60;43.80;;;;;;10378635;28;20229;-76
2023/10/19 11:05:24;;;;;;;13.37;12.23;;;16.60;43.00;;;;;;10378851;28;20240;-77
2023/10/19 11:10:30;;;;;;;12.27;11.27;;;16.70;43.90;;;;;;10373728;28;20244;-77
2023/10/19 11:15:34;;;;;;;13.33;12.23;;;16.70;43.90;;;;;;10381540;28;20240;-77
2023/10/19 11:20:39;;;;;;;13.67;12.47;;;16.80;43.30;;;;;;10375391;28;20476;-77
2023/10/19 11:25:45;;;;;;;13.13;12.03;;;16.90;44.00;;;;;;10377309;28;20240;-77
2023/10/19 11:30:48;;;;;;;14.60;13.33;;;16.90;43.20;;;;;;10381397;28;20229;-77
2023/10/19 11:35:53;;;;;;;13.60;12.30;;;16.90;43.30;;;;;;10381911;28;20225;-77
2023/10/19 11:40:57;;;;;;;13.17;11.77;;;17.00;44.00;;;;;;10371071;28;20656;-76
2023/10/19 11:46:01;;;;;;;13.17;11.93;;;17.10;43.70;;;;;;10375602;28;20222;-76
2023/10/19 11:51:06;;;;;;;13.80;12.60;;;17.10;43.80;;;;;;10370457;28;20241;-76
2023/10/19 11:56:12;;;;;;;13.90;12.60;;;17.20;44.40;;;;;;10370724;28;20308;-76
2023/10/19 12:01:16;;;;;;;13.53;12.33;;;17.30;44.00;;;;;;10376888;28;20222;-76
2023/10/19 12:06:23;;;;;;;11.30;10.30;;;17.40;43.70;;;;;;10371010;28;20221;-76
2023/10/19 12:11:27;;;;;;;14.23;13.03;;;17.50;43.90;;;;;;10369301;28;20229;-76
2023/10/19 12:16:31;;;;;;;13.77;12.67;;;17.60;43.80;;;;;;10374938;28;20232;-72
2023/10/19 12:21:37;;;;;;;13.77;12.57;;;17.60;43.80;;;;;;10369514;28;20222;-72
2023/10/19 12:26:42;;;;;;;13.60;12.40;;;17.70;44.10;;;;;;10367310;28;20312;-72
2023/10/19 12:31:46;;;;;;;13.07;11.93;;;17.70;43.80;;;;;;10368278;28;20778;-73
2023/10/19 12:36:57;;;;;;;12.90;11.77;;;17.80;44.00;;;;;;10370231;28;20224;-72
2023/10/19 12:42:01;;;;;;;13.40;12.23;;;17.80;44.30;;;;;;10363555;28;20284;-74
2023/10/19 12:47:09;;;;;;;14.07;12.87;;;17.90;44.10;;;;;;10365400;28;21017;-74
2023/10/19 12:52:14;;;;;;;12.90;11.90;;;18.00;44.40;;;;;;10367571;28;20230;-74
2023/10/19 12:57:19;;;;;;;13.03;11.97;;;18.10;44.80;;;;;;10375432;28;20226;-73
2023/10/19 13:02:24;;;;;;;16.57;15.27;;;18.20;44.40;;;;;;10377507;28;20234;-73
2023/10/19 13:07:31;;;;;;;15.57;14.20;;;18.30;44.40;;;;;;10378886;28;20248;-74
2023/10/19 13:12:34;;;;;;;15.70;14.27;;;18.30;44.80;;;;;;10376196;28;21888;-73
2023/10/19 13:17:37;;;;;;;17.13;15.50;;;18.40;44.80;;;;;;10375160;28;20229;-73
2023/10/19 13:22:42;;;;;;;16.07;14.57;;;18.40;44.00;;;;;;10377857;28;20241;-73
2023/10/19 13:27:45;;;;;;;14.87;13.37;;;18.50;44.30;;;;;;10377754;28;20284;-73
2023/10/19 13:32:49;;;;;;;13.60;12.40;;;18.50;43.90;;;;;;10376627;28;20228;-74
2023/10/19 13:37:54;;;;;;;12.90;11.70;;;18.50;43.90;;;;;;10378261;28;20240;-74
2023/10/19 13:42:58;;;;;;;13.10;12.00;;;18.60;44.30;;;;;;10383070;28;20221;-73
2023/10/19 13:48:02;;;;;;;13.00;11.90;;;18.60;43.90;;;;;;10381851;28;20225;-73
2023/10/19 13:53:07;;;;;;;13.47;12.03;;;18.70;44.00;;;;;;10385050;28;20240;-73
2023/10/19 13:58:10;;;;;;;13.07;11.97;;;18.80;44.10;;;;;;10382946;28;20241;-73
2023/10/19 14:03:14;;;;;;;13.20;12.00;;;18.80;43.90;;;;;;10383935;28;20327;-73
2023/10/19 14:08:20;;;;;;;14.07;12.77;;;18.80;43.80;;;;;;10381641;28;20221;-73
2023/10/19 14:13:24;;;;;;;12.90;11.80;;;18.80;43.90;;;;;;10383155;28;20237;-72
2023/10/19 14:18:27;;;;;;;14.27;13.07;;;18.80;43.70;;;;;;10385694;28;20221;-72
2023/10/19 14:23:32;;;;;;;10.80;9.67;;;18.90;43.80;;;;;;10380465;28;20312;-76
2023/10/19 14:28:36;;;;;;;14.43;13.13;;;18.90;44.10;;;;;;10377207;28;20253;-71
2023/10/19 14:33:40;;;;;;;12.67;11.50;;;19.00;43.90;;;;;;10380470;28;20233;-72
2023/10/19 14:38:47;;;;;;;13.83;12.63;;;19.00;43.70;;;;;;10376831;28;20874;-72
2023/10/19 14:43:50;;;;;;;19.00;17.20;;;19.00;43.70;;;;;;10369121;28;20271;-73
2023/10/19 14:48:53;;;;;;;17.20;15.67;;;19.00;43.60;;;;;;10381157;28;20622;-72
2023/10/19 14:53:58;;;;;;;13.60;12.40;;;19.00;43.70;;;;;;10377432;28;20718;-72
2023/10/19 14:59:01;;;;;;;13.30;12.20;;;19.00;43.90;;;;;;10382072;28;20230;-72
2023/10/19 15:04:05;;;;;;;12.63;11.63;;;19.10;43.80;;;;;;10379767;28;20253;-72
2023/10/19 15:09:15;;;;;;;11.43;10.53;;;19.00;43.70;;;;;;10369053;28;20243;-72
2023/10/19 15:14:19;;;;;;;13.50;12.30;;;19.10;44.10;;;;;;10375326;28;20240;-73
2023/10/19 15:19:22;;;;;;;12.87;11.77;;;19.10;43.90;;;;;;10377530;28;20323;-72
2023/10/19 15:24:27;;;;;;;13.80;12.60;;;19.10;43.80;;;;;;10375843;28;20233;-72
2023/10/19 15:29:30;;;;;;;13.53;12.33;;;19.20;44.20;;;;;;10374182;28;20229;-72
2023/10/19 15:34:34;;;;;;;14.43;12.93;;;19.20;43.80;;;;;;10387182;28;21172;-72
2023/10/19 15:39:39;;;;;;;13.87;12.60;;;19.20;43.70;;;;;;10382755;28;20905;-73
2023/10/19 15:44:42;;;;;;;14.07;12.87;;;19.20;43.90;;;;;;10384079;28;20241;-72
2023/10/19 15:49:50;;;;;;;15.27;13.97;;;19.20;43.70;;;;;;10382482;28;21057;-74
2023/10/19 15:54:55;;;;;;;13.83;12.70;;;19.10;44.20;;;;;;10382968;28;20229;-72
2023/10/19 15:59:59;;;;;;;14.47;13.00;;;19.10;43.90;;;;;;10379674;28;20316;-73
2023/10/19 16:05:04;;;;;;;13.83;12.53;;;19.10;43.60;;;;;;10389113;28;20261;-74
2023/10/19 16:10:12;;;;;;;14.47;13.27;;;19.00;43.60;;;;;;10388468;28;20636;-74
2023/10/19 16:15:16;;;;;;;15.27;13.97;;;19.00;43.90;;;;;;10386132;28;20910;-73
2023/10/19 16:20:19;;;;;;;16.37;15.07;;;19.00;43.50;;;;;;10392341;28;20240;-73
2023/10/19 16:25:24;;;;;;;16.23;14.83;;;18.90;44.10;;;;;;10389954;28;20307;-74
2023/10/19 16:30:31;;;;;;;13.03;12.03;;;18.80;43.60;;;;;;10394345;28;20989;-74
2023/10/19 16:35:34;;;;;;;16.37;14.97;;;18.80;43.50;;;;;;10400024;28;20249;-72
2023/10/19 16:40:40;;;;;;;17.27;15.77;;;18.70;43.50;;;;;;10391014;28;20237;-75
2023/10/19 16:45:43;;;;;;;16.33;14.83;;;18.70;43.70;;;;;;10391034;28;20226;-75
2023/10/19 16:50:46;;;;;;;16.73;15.30;;;18.60;43.40;;;;;;10394931;28;20222;-75
2023/10/19 16:55:51;;;;;;;14.97;13.67;;;18.50;43.40;;;;;;10393846;28;20583;-75
2023/10/19 17:00:54;;;;;;;17.57;16.13;;;18.50;43.60;;;;;;10394764;28;20231;-75
2023/10/19 17:06:01;;;;;;;16.30;14.87;;;18.40;43.40;;;;;;10395529;28;20222;-75
2023/10/19 17:11:07;;;;;;;16.60;15.20;;;18.40;43.50;;;;;;10392807;28;20224;-76
2023/10/19 17:16:10;;;;;;;17.23;15.83;;;18.30;44.30;;;;;;10397867;28;20309;-76
2023/10/19 17:21:14;;;;;;;15.93;14.43;;;18.30;43.20;;;;;;10391960;28;20252;-76
2023/10/19 17:26:18;;;;;;;17.57;15.97;;;18.20;43.20;;;;;;10392912;28;20248;-76
2023/10/19 17:31:22;;;;;;;16.33;15.03;;;18.20;43.40;;;;;;10393975;28;20253;-75
2023/10/19 17:36:25;;;;;;;16.97;15.57;;;18.20;43.30;;;;;;10394531;28;20266;-76
2023/10/19 17:41:30;;;;;;;16.37;14.87;;;18.10;43.20;;;;;;10390806;28;20237;-76
2023/10/19 17:46:39;;;;;;;19.13;17.33;;;18.00;43.10;;;;;;10386686;28;20244;-76
2023/10/19 17:51:43;;;;;;;19.17;17.43;;;17.90;42.90;;;;;;10392718;28;20312;-76
2023/10/19 17:56:48;;;;;;;16.17;14.63;;;17.90;42.80;;;;;;10390802;28;20773;-76
2023/10/19 18:01:52;;;;;;;20.03;18.23;;;17.70;42.90;;;;;;10386000;28;20240;-76
2023/10/19 18:06:55;;;;;;;18.83;17.17;;;17.60;42.80;;;;;;10397776;28;20240;-76
2023/10/19 18:12:00;;;;;;;18.87;17.27;;;17.60;42.70;;;;;;10386765;28;20230;-79
2023/10/19 18:17:09;;;;;;;18.30;16.70;;;17.50;42.90;;;;;;10389265;28;20209;-75
2023/10/19 18:22:12;;;;;;;22.27;20.43;;;17.40;42.80;;;;;;10394724;28;20240;-76
2023/10/19 18:27:16;;;;;;;22.77;20.77;;;17.40;43.00;;;;;;10394059;28;20225;-75
2023/10/19 18:32:20;;;;;;;21.93;20.03;;;17.30;43.30;;;;;;10393698;28;20240;-76
2023/10/19 18:37:23;;;;;;;18.53;17.03;;;17.20;43.00;;;;;;10395236;28;20295;-76
2023/10/19 18:42:29;;;;;;;20.70;18.60;;;17.20;42.90;;;;;;10395144;28;20267;-75
2023/10/19 18:47:33;;;;;;;18.53;16.93;;;17.10;43.20;;;;;;10395830;28;20237;-76
2023/10/19 18:52:37;;;;;;;17.70;16.03;;;17.10;43.10;;;;;;10393482;28;20235;-75
2023/10/19 18:57:42;;;;;;;19.53;17.63;;;17.00;43.10;;;;;;10390279;28;20233;-73
2023/10/19 19:02:46;;;;;;;17.20;15.70;;;17.00;43.40;;;;;;10388837;28;20287;-72
2023/10/19 19:07:50;;;;;;;17.60;16.00;;;16.90;43.00;;;;;;10389604;28;20696;-72
2023/10/19 19:12:56;;;;;;;14.97;13.67;;;16.90;43.20;;;;;;10389275;28;20229;-72
2023/10/19 19:18:01;;;;;;;13.60;12.43;;;16.80;43.50;;;;;;10389242;28;20778;-73
2023/10/19 19:23:04;;;;;;;17.17;15.67;;;16.80;43.20;;;;;;10389029;28;20233;-75
2023/10/19 19:28:09;;;;;;;23.50;20.77;;;16.70;43.20;;;;;;10392122;28;20243;-75
2023/10/19 19:33:14;;;;;;;16.90;15.20;;;16.70;43.40;;;;;;10389891;28;20264;-76
2023/10/19 19:38:17;;;;;;;19.37;17.47;;;16.60;43.20;;;;;;10387173;28;20333;-76
2023/10/19 19:43:23;;;;;;;18.37;16.57;;;16.60;43.40;;;;;;10388988;28;20234;-76
2023/10/19 19:48:27;;;;;;;19.50;17.50;;;16.50;43.80;;;;;;10390853;28;20233;-76
2023/10/19 19:53:30;;;;;;;18.30;16.43;;;16.50;43.70;;;;;;10390793;28;20356;-76
2023/10/19 19:58:35;;;;;;;15.23;13.83;;;16.50;43.90;;;;;;10387502;28;20692;-76
2023/10/19 20:03:38;;;;;;;18.50;16.60;;;16.40;44.00;;;;;;10387414;28;20926;-76
2023/10/19 20:08:42;;;;;;;16.93;15.33;;;16.50;44.00;;;;;;10394418;28;20217;-76
2023/10/19 20:13:46;;;;;;;16.33;14.83;;;16.40;43.70;;;;;;10390197;28;20225;-77
2023/10/19 20:18:50;;;;;;;16.13;14.53;;;16.40;43.90;;;;;;10389212;28;20221;-77
2023/10/19 20:23:53;;;;;;;16.77;15.27;;;16.50;43.70;;;;;;10384701;28;20229;-75
2023/10/19 20:28:58;;;;;;;15.97;14.47;;;16.50;43.70;;;;;;10305565;28;2475757;-74
2023/10/19 20:34:01;;;;;;;13.93;12.77;;;16.40;43.80;;;;;;10385232;28;20299;-75
2023/10/19 20:39:05;;;;;;;16.37;14.97;;;16.40;43.40;;;;;;10386143;28;20229;-75
2023/10/19 20:44:10;;;;;;;15.87;14.57;;;16.30;43.40;;;;;;10387672;28;20232;-74
2023/10/19 20:49:13;;;;;;;13.83;12.63;;;16.40;43.60;;;;;;10392982;28;20225;-75
2023/10/19 20:54:16;;;;;;;15.50;14.10;;;16.30;43.30;;;;;;10395381;28;20738;-74
2023/10/19 20:59:23;;;;;;;14.67;13.23;;;16.30;43.40;;;;;;10392744;28;20738;-74
2023/10/19 21:04:26;;;;;;;14.87;13.63;;;16.20;43.20;;;;;;10393894;28;20805;-75
2023/10/19 21:09:30;;;;;;;15.93;14.63;;;16.20;43.10;;;;;;10392969;28;20230;-74
2023/10/19 21:14:35;;;;;;;14.53;13.33;;;16.10;43.20;;;;;;10386186;28;20244;-74
2023/10/19 21:19:39;;;;;;;14.87;13.67;;;16.00;43.50;;;;;;10390706;28;20236;-74
2023/10/19 21:24:42;;;;;;;15.33;14.03;;;16.00;44.20;;;;;;10391096;28;20225;-75
2023/10/19 21:29:49;;;;;;;13.47;12.37;;;15.90;43.50;;;;;;10393256;28;20221;-74
2023/10/19 21:34:52;;;;;;;12.60;11.60;;;15.90;44.10;;;;;;10397470;28;20236;-74
2023/10/19 21:39:56;;;;;;;14.00;12.80;;;15.90;43.90;;;;;;10393518;28;20249;-75
2023/10/19 21:45:02;;;;;;;14.67;13.47;;;15.90;43.90;;;;;;10397364;28;20922;-74
2023/10/19 21:50:06;;;;;;;15.87;14.27;;;15.90;44.10;;;;;;10393045;28;20257;-74
2023/10/19 21:55:11;;;;;;;16.20;14.60;;;15.90;43.90;;;;;;10392208;28;20232;-74
2023/10/19 22:00:26;;;;;;;15.60;14.17;;;15.90;44.00;;;;;;10392895;28;20221;-74
2023/10/19 22:05:31;;;;;;;15.97;14.57;;;15.90;44.20;;;;;;10392265;28;20766;-74
2023/10/19 22:10:35;;;;;;;17.00;15.40;;;15.90;44.70;;;;;;10391854;28;20251;-74
2023/10/19 22:15:40;;;;;;;15.60;14.20;;;15.90;43.90;;;;;;10392583;28;20626;-74
2023/10/19 22:20:43;;;;;;;17.03;15.53;;;15.80;44.10;;;;;;10389914;28;20241;-74
2023/10/19 22:25:47;;;;;;;17.17;15.13;;;15.80;44.00;;;;;;10392168;28;20318;-74
2023/10/19 22:30:51;;;;;;;16.97;15.47;;;15.80;43.90;;;;;;10394203;28;20321;-74
2023/10/19 22:35:54;;;;;;;16.30;14.70;;;15.70;44.20;;;;;;10388397;28;20248;-74
2023/10/19 22:40:57;;;;;;;15.93;14.53;;;15.70;44.00;;;;;;10393174;28;20712;-74
2023/10/19 22:46:06;;;;;;;16.10;14.60;;;15.70;44.00;;;;;;10389941;28;20304;-74
2023/10/19 22:51:10;;;;;;;16.23;14.73;;;15.70;44.80;;;;;;10393315;28;20323;-74
2023/10/19 22:56:13;;;;;;;15.53;14.17;;;15.70;44.30;;;;;;10394836;28;20322;-74
2023/10/19 23:01:18;;;;;;;14.87;13.67;;;15.70;44.30;;;;;;10390391;28;20769;-74
2023/10/19 23:06:25;;;;;;;14.40;13.20;;;15.70;44.40;;;;;;10390941;28;20244;-73
2023/10/19 23:11:29;;;;;;;14.60;13.40;;;15.70;44.10;;;;;;10386787;28;20245;-73
2023/10/19 23:16:35;;;;;;;15.40;14.00;;;15.70;44.00;;;;;;10378673;28;20242;-73
2023/10/19 23:21:39;;;;;;;15.40;14.00;;;15.60;44.30;;;;;;10387425;28;20326;-73
2023/10/19 23:26:42;;;;;;;15.13;13.73;;;15.60;44.20;;;;;;10386512;28;20235;-73
2023/10/19 23:31:49;;;;;;;15.87;14.07;;;15.60;44.00;;;;;;10384222;28;20275;-73
2023/10/19 23:36:53;;;;;;;15.57;14.07;;;15.50;43.90;;;;;;10390764;28;20723;-73
2023/10/19 23:41:57;;;;;;;14.23;12.93;;;15.50;43.70;;;;;;10380637;28;21230;-73
2023/10/19 23:47:02;;;;;;;15.33;13.93;;;15.40;43.70;;;;;;10391701;28;20276;-77
2023/10/19 23:52:05;;;;;;;16.37;14.87;;;15.40;44.10;;;;;;10388099;28;20628;-76
2023/10/19 23:57:09;;;;;;;16.33;14.87;;;15.40;44.20;;;;;;10390365;28;20238;-77
